Time;durP1;ratioP1;P1;durP2;ratioP2;P2;SDS_P1;SDS_P2;PMS_P1;PMS_P2;Temp;Humidity;BMP_temperature;BMP_pressure;BME280_temperature;BME280_humidity;BME280_pressure;Samples;Min_cycle;Max_cycle;Signal;HPM_P1;HPM_P2
2021/01/12 00:01:45;;;;;;;9.47;5.93;;;5.30;90.60;;;;;;4997794;28;20484;-75
2021/01/12 00:04:11;;;;;;;12.30;6.47;;;5.40;90.60;;;;;;4999891;28;20414;-75
2021/01/12 00:06:37;;;;;;;10.70;7.10;;;5.40;90.50;;;;;;5014172;28;20994;-74
2021/01/12 00:09:06;;;;;;;11.50;5.93;;;5.40;90.40;;;;;;4997247;28;21080;-74
2021/01/12 00:11:32;;;;;;;8.20;5.33;;;5.40;90.30;;;;;;5019013;28;20410;-75
2021/01/12 00:13:58;;;;;;;9.33;5.97;;;5.50;90.30;;;;;;5014081;28;20478;-75
2021/01/12 00:16:23;;;;;;;10.53;5.20;;;5.50;90.10;;;;;;5014844;28;20660;-75
2021/01/12 00:18:49;;;;;;;7.73;5.67;;;5.50;90.10;;;;;;5014569;28;20190;-75
2021/01/12 00:21:15;;;;;;;6.90;4.87;;;5.50;90.00;;;;;;5013535;28;20195;-76
2021/01/12 00:23:41;;;;;;;9.10;4.97;;;5.60;90.00;;;;;;5012974;28;20163;-76
2021/01/12 00:26:10;;;;;;;11.97;6.27;;;5.60;90.00;;;;;;5013123;28;20457;-74
2021/01/12 00:28:39;;;;;;;8.43;6.03;;;5.60;90.00;;;;;;5014666;28;20429;-77
2021/01/12 00:31:05;;;;;;;7.80;5.37;;;5.60;90.00;;;;;;4980252;28;20780;-76
2021/01/12 00:33:32;;;;;;;9.73;4.97;;;5.60;89.80;;;;;;5013271;28;20429;-74
2021/01/12 00:36:07;;;;;;;10.50;6.00;;;5.70;90.00;;;;;;5012580;28;20414;-76
2021/01/12 00:38:34;;;;;;;8.03;5.37;;;5.70;89.90;;;;;;5012511;28;20445;-74
2021/01/12 00:41:08;;;;;;;7.33;5.60;;;5.70;89.70;;;;;;5013283;28;20535;-74
2021/01/12 00:43:33;;;;;;;9.37;4.97;;;5.70;89.50;;;;;;5013088;28;20417;-75
2021/01/12 00:45:59;;;;;;;12.40;4.70;;;5.70;89.50;;;;;;5017012;28;20402;-73
2021/01/12 00:48:25;;;;;;;7.87;4.93;;;5.80;89.60;;;;;;5016815;28;20195;-74
2021/01/12 00:50:50;;;;;;;7.20;5.50;;;5.80;89.50;;;;;;5012770;28;20174;-75
2021/01/12 00:53:16;;;;;;;10.57;5.30;;;5.80;89.50;;;;;;5013015;28;20669;-73
2021/01/12 00:55:42;;;;;;;7.40;4.60;;;5.80;89.40;;;;;;5013495;28;20171;-74
2021/01/12 00:58:07;;;;;;;7.30;5.13;;;5.80;89.40;;;;;;4994821;28;20199;-75
2021/01/12 01:00:33;;;;;;;7.10;4.97;;;5.80;89.40;;;;;;5012503;28;20202;-77
2021/01/12 01:02:59;;;;;;;8.40;3.80;;;5.80;89.40;;;;;;5013007;28;20185;-77
2021/01/12 01:05:24;;;;;;;7.40;4.53;;;5.80;89.50;;;;;;4994839;28;20626;-75
2021/01/12 01:07:50;;;;;;;6.70;4.37;;;5.80;89.30;;;;;;5010756;28;20261;-76
2021/01/12 01:10:16;;;;;;;5.67;4.20;;;5.80;89.60;;;;;;5012691;28;20186;-76
2021/01/12 01:12:41;;;;;;;9.53;5.20;;;5.80;89.40;;;;;;5012055;28;20174;-74
2021/01/12 01:15:07;;;;;;;7.63;4.83;;;5.90;89.30;;;;;;5012873;28;20194;-74
2021/01/12 01:17:36;;;;;;;8.00;4.27;;;5.80;89.30;;;;;;4994755;28;20541;-74
2021/01/12 01:20:03;;;;;;;6.70;4.60;;;5.90;89.50;;;;;;4995699;28;20446;-73
2021/01/12 01:22:29;;;;;;;6.50;4.50;;;5.90;89.50;;;;;;5012333;28;20418;-74
2021/01/12 01:24:55;;;;;;;13.37;5.27;;;5.90;89.50;;;;;;5011885;28;20934;-73
2021/01/12 01:27:20;;;;;;;8.50;4.53;;;5.90;89.60;;;;;;4994877;28;20414;-76
2021/01/12 01:29:46;;;;;;;5.97;4.10;;;5.90;89.60;;;;;;5011441;28;20223;-74
2021/01/12 01:32:12;;;;;;;8.17;4.53;;;5.90;89.60;;;;;;4994991;28;20171;-73
2021/01/12 01:34:38;;;;;;;5.47;3.80;;;5.90;89.30;;;;;;5011891;28;20652;-75
2021/01/12 01:37:04;;;;;;;8.33;4.80;;;5.90;89.40;;;;;;5012814;28;20218;-76
2021/01/12 01:39:30;;;;;;;7.10;4.17;;;5.90;89.50;;;;;;5012661;28;20215;-76
2021/01/12 01:42:00;;;;;;;6.70;4.13;;;5.90;89.40;;;;;;5012964;28;20951;-74
2021/01/12 01:44:26;;;;;;;7.00;4.50;;;5.90;89.40;;;;;;5013523;28;20175;-74
2021/01/12 01:46:51;;;;;;;6.23;3.73;;;5.90;89.30;;;;;;5012535;28;20456;-76
2021/01/12 01:49:18;;;;;;;7.50;3.93;;;5.90;89.40;;;;;;5013986;28;20474;-75
2021/01/12 01:51:46;;;;;;;5.90;4.33;;;5.90;89.40;;;;;;5011034;28;20171;-73
2021/01/12 01:54:12;;;;;;;10.43;4.27;;;5.90;89.50;;;;;;5011960;28;20426;-75
2021/01/12 01:56:38;;;;;;;6.90;4.37;;;5.90;89.50;;;;;;5009342;28;20959;-75
2021/01/12 01:59:04;;;;;;;8.30;4.23;;;5.80;89.40;;;;;;4994943;28;20453;-74
2021/01/12 02:01:29;;;;;;;5.53;4.17;;;5.80;89.50;;;;;;5012850;28;20199;-75
2021/01/12 02:04:17;;;;;;;9.33;4.00;;;5.80;89.60;;;;;;5012821;28;20171;-75
2021/01/12 02:06:45;;;;;;;4.80;3.50;;;5.80;89.60;;;;;;5012703;28;20164;-75
2021/01/12 02:09:24;;;;;;;7.10;3.47;;;5.80;89.60;;;;;;4995321;28;20450;-74
2021/01/12 02:11:56;;;;;;;5.47;3.10;;;5.80;89.70;;;;;;5014209;28;20406;-76
2021/01/12 02:14:25;;;;;;;4.47;2.63;;;5.80;89.70;;;;;;5013277;28;20422;-76
2021/01/12 02:16:54;;;;;;;4.23;2.60;;;5.80;89.80;;;;;;5011905;28;20420;-75
2021/01/12 02:19:23;;;;;;;4.40;2.37;;;5.90;90.00;;;;;;5012690;28;20492;-76
2021/01/12 02:21:58;;;;;;;5.07;2.67;;;5.80;90.10;;;;;;5015548;28;20561;-75
2021/01/12 02:24:23;;;;;;;3.97;2.87;;;5.90;90.10;;;;;;5012687;28;20552;-76
2021/01/12 02:26:49;;;;;;;3.43;2.63;;;5.90;90.30;;;;;;5017764;28;20869;-74
2021/01/12 02:29:15;;;;;;;3.63;2.80;;;5.90;90.20;;;;;;5015653;28;20241;-74
2021/01/12 02:31:40;;;;;;;3.57;2.30;;;5.90;90.20;;;;;;5010342;28;20210;-77
2021/01/12 02:34:13;;;;;;;5.00;2.53;;;5.90;90.30;;;;;;5011630;28;20266;-74
2021/01/12 02:36:40;;;;;;;4.60;2.03;;;5.90;90.30;;;;;;5011417;28;20167;-76
2021/01/12 02:39:05;;;;;;;4.10;2.10;;;5.90;90.70;;;;;;5011473;28;20437;-75
2021/01/12 02:41:32;;;;;;;6.63;2.87;;;5.90;90.40;;;;;;5013547;28;20454;-74
2021/01/12 02:43:59;;;;;;;5.47;2.80;;;6.00;90.50;;;;;;5012424;28;20224;-76
2021/01/12 02:46:25;;;;;;;3.90;2.40;;;6.00;90.50;;;;;;5009835;28;20433;-75
2021/01/12 02:48:52;;;;;;;4.23;2.30;;;6.00;90.50;;;;;;5010740;28;20442;-75
2021/01/12 02:51:17;;;;;;;4.13;1.77;;;6.00;90.50;;;;;;5010911;28;20406;-73
2021/01/12 02:53:43;;;;;;;4.57;2.00;;;6.10;90.50;;;;;;5011073;28;20512;-75
2021/01/12 02:56:08;;;;;;;3.20;1.60;;;6.10;90.50;;;;;;5010892;28;20175;-73
2021/01/12 02:58:34;;;;;;;2.93;1.60;;;6.10;90.40;;;;;;5010530;28;20548;-74
2021/01/12 03:01:00;;;;;;;2.60;1.40;;;6.10;90.60;;;;;;5010905;28;20709;-74
2021/01/12 03:03:26;;;;;;;3.30;1.80;;;6.10;90.60;;;;;;5010915;28;20258;-74
2021/01/12 03:05:52;;;;;;;1.80;1.27;;;6.10;90.60;;;;;;5010746;28;20506;-73
2021/01/12 03:08:18;;;;;;;1.70;1.10;;;6.10;90.60;;;;;;5012067;28;20199;-76
2021/01/12 03:10:43;;;;;;;2.03;1.43;;;6.20;90.70;;;;;;5015260;28;20509;-76
2021/01/12 03:13:09;;;;;;;2.00;1.63;;;6.20;90.60;;;;;;4979687;28;20174;-74
2021/01/12 03:15:36;;;;;;;1.70;1.30;;;6.20;90.70;;;;;;4996965;28;20262;-76
2021/01/12 03:18:02;;;;;;;4.07;1.33;;;6.20;90.70;;;;;;4997345;28;20548;-75
2021/01/12 03:20:28;;;;;;;6.10;1.10;;;6.20;90.80;;;;;;5013523;28;20556;-74
2021/01/12 03:22:53;;;;;;;2.23;1.10;;;6.20;90.80;;;;;;4997476;28;20410;-75
2021/01/12 03:25:20;;;;;;;2.33;1.40;;;6.20;90.90;;;;;;5014898;28;20163;-74
2021/01/12 03:27:49;;;;;;;1.70;1.00;;;6.20;90.80;;;;;;5014937;28;20206;-75
2021/01/12 03:30:16;;;;;;;1.13;0.90;;;6.20;90.80;;;;;;5014383;28;20413;-74
2021/01/12 03:32:42;;;;;;;1.80;1.10;;;6.20;90.70;;;;;;5015130;28;20425;-75
2021/01/12 03:35:10;;;;;;;1.90;0.87;;;6.20;90.80;;;;;;5015253;28;20421;-76
2021/01/12 03:37:35;;;;;;;1.77;1.00;;;6.20;90.80;;;;;;5016281;28;20521;-74
2021/01/12 03:40:05;;;;;;;1.83;1.30;;;6.20;90.90;;;;;;4997370;28;20453;-76
2021/01/12 03:42:31;;;;;;;1.20;0.80;;;6.20;91.00;;;;;;4996901;28;20163;-73
2021/01/12 03:44:56;;;;;;;2.30;1.10;;;6.20;91.10;;;;;;5013930;28;20409;-76
2021/01/12 03:47:22;;;;;;;1.87;0.90;;;6.10;91.20;;;;;;5013888;28;20223;-76
2021/01/12 03:49:48;;;;;;;3.90;1.10;;;6.20;91.20;;;;;;5014103;28;20168;-75
2021/01/12 03:52:14;;;;;;;2.03;1.30;;;6.20;91.40;;;;;;5015309;28;20169;-74
2021/01/12 03:54:39;;;;;;;5.30;1.17;;;6.10;91.30;;;;;;5014915;28;20414;-75
2021/01/12 03:57:05;;;;;;;1.30;1.00;;;6.10;91.40;;;;;;5013777;28;20163;-76
2021/01/12 03:59:30;;;;;;;1.30;1.00;;;6.20;91.50;;;;;;5013826;28;20270;-76
2021/01/12 04:01:56;;;;;;;1.40;0.80;;;6.10;91.60;;;;;;4996124;28;20673;-74
2021/01/12 04:04:21;;;;;;;2.13;1.10;;;6.20;91.60;;;;;;4996656;28;20548;-74
2021/01/12 04:06:47;;;;;;;1.83;1.10;;;6.10;91.50;;;;;;5013835;28;20178;-76
2021/01/12 04:09:13;;;;;;;1.73;1.33;;;6.10;91.60;;;;;;5013897;28;20203;-74
2021/01/12 04:11:38;;;;;;;2.07;1.27;;;6.10;91.70;;;;;;4996336;28;20171;-74
2021/01/12 04:14:08;;;;;;;1.53;1.00;;;6.20;91.80;;;;;;5013037;28;20190;-73
2021/01/12 04:16:34;;;;;;;1.70;0.90;;;6.20;91.80;;;;;;5013589;28;20186;-74
2021/01/12 04:18:59;;;;;;;2.27;1.00;;;6.20;91.80;;;;;;5011774;28;20803;-74
2021/01/12 04:21:25;;;;;;;3.33;1.30;;;6.20;91.90;;;;;;5013478;28;20593;-77
2021/01/12 04:23:51;;;;;;;1.47;1.00;;;6.20;91.90;;;;;;4996308;28;20195;-75
2021/01/12 04:26:17;;;;;;;1.90;1.40;;;6.20;91.90;;;;;;5013583;28;20410;-74
2021/01/12 04:28:43;;;;;;;1.40;0.90;;;6.20;91.90;;;;;;4998712;28;21032;-73
2021/01/12 04:31:09;;;;;;;1.20;0.90;;;6.10;91.90;;;;;;5013929;28;20908;-75
2021/01/12 04:33:35;;;;;;;2.67;1.30;;;6.10;92.00;;;;;;5012877;28;20449;-74
2021/01/12 04:36:01;;;;;;;2.00;1.20;;;6.10;92.10;;;;;;5012651;28;20476;-76
2021/01/12 04:38:26;;;;;;;1.70;1.17;;;6.10;92.10;;;;;;5013240;28;20187;-74
2021/01/12 04:40:52;;;;;;;1.50;1.00;;;6.10;92.50;;;;;;5013533;28;20194;-77
2021/01/12 04:43:17;;;;;;;1.80;1.10;;;6.10;92.20;;;;;;5013656;28;20774;-76
2021/01/12 04:45:43;;;;;;;1.77;1.20;;;6.10;92.30;;;;;;5012778;28;20183;-74
2021/01/12 04:48:09;;;;;;;2.20;1.13;;;6.10;92.30;;;;;;5013098;28;20540;-76
2021/01/12 04:50:34;;;;;;;1.90;1.47;;;6.10;92.40;;;;;;5014199;28;20174;-73
2021/01/12 04:53:00;;;;;;;2.50;1.20;;;6.10;92.40;;;;;;5011888;28;20464;-76
2021/01/12 04:55:26;;;;;;;4.03;1.20;;;6.10;92.50;;;;;;5012792;28;20194;-76
2021/01/12 04:57:52;;;;;;;1.70;0.97;;;6.10;92.50;;;;;;4995085;28;20194;-74
2021/01/12 05:00:23;;;;;;;1.43;0.87;;;6.10;92.50;;;;;;5012233;28;20194;-74
2021/01/12 05:02:59;;;;;;;1.30;0.80;;;6.10;92.50;;;;;;5012775;28;20420;-74
2021/01/12 05:05:39;;;;;;;1.60;0.97;;;6.10;92.60;;;;;;5012046;28;20422;-75
2021/01/12 05:08:05;;;;;;;1.50;1.00;;;6.20;92.60;;;;;;5010781;28;20456;-74
2021/01/12 05:10:36;;;;;;;1.67;0.87;;;6.10;92.60;;;;;;4995191;28;20516;-74
2021/01/12 05:13:08;;;;;;;2.17;1.20;;;6.10;92.70;;;;;;5012954;28;20449;-74
2021/01/12 05:15:36;;;;;;;1.30;0.90;;;6.20;92.80;;;;;;5012550;28;20931;-76
2021/01/12 05:18:05;;;;;;;1.40;1.00;;;6.20;92.80;;;;;;4995124;28;20860;-76
2021/01/12 05:20:56;;;;;;;1.43;0.90;;;6.20;92.80;;;;;;5014209;28;20450;-74
2021/01/12 05:23:24;;;;;;;2.17;1.17;;;6.20;92.80;;;;;;5014378;28;20421;-76
2021/01/12 05:25:52;;;;;;;1.40;1.00;;;6.20;93.00;;;;;;5013449;28;21003;-74
2021/01/12 05:28:18;;;;;;;1.73;0.93;;;6.20;92.90;;;;;;5005252;28;20496;-75
2021/01/12 05:30:50;;;;;;;2.03;0.80;;;6.20;92.90;;;;;;5013490;28;20406;-76
2021/01/12 05:33:19;;;;;;;1.30;0.90;;;6.20;92.90;;;;;;5017425;28;20418;-77
2021/01/12 05:35:47;;;;;;;2.47;1.00;;;6.20;92.80;;;;;;4997504;28;20868;-75
2021/01/12 05:38:27;;;;;;;2.40;0.90;;;6.20;92.80;;;;;;5014136;28;20843;-75
2021/01/12 05:40:55;;;;;;;1.73;1.00;;;6.20;92.80;;;;;;5017459;28;20452;-76
2021/01/12 05:43:37;;;;;;;1.37;0.87;;;6.20;92.80;;;;;;5025448;28;20410;-74
2021/01/12 05:46:14;;;;;;;1.30;0.83;;;6.20;92.80;;;;;;5024940;28;20432;-74
2021/01/12 05:48:42;;;;;;;3.50;1.30;;;6.20;92.80;;;;;;5016317;28;20425;-78
2021/01/12 05:51:16;;;;;;;1.60;0.97;;;6.20;92.80;;;;;;5014705;28;20437;-74
2021/01/12 05:53:50;;;;;;;1.80;1.07;;;6.20;92.80;;;;;;5012075;28;20520;-75
2021/01/12 05:56:23;;;;;;;2.17;0.90;;;6.30;93.10;;;;;;5012441;28;20425;-76
2021/01/12 05:58:51;;;;;;;1.20;0.80;;;6.30;92.70;;;;;;5013070;28;20815;-75
2021/01/12 06:01:50;;;;;;;1.40;0.97;;;6.30;92.70;;;;;;5011651;28;20465;-73
2021/01/12 06:04:16;;;;;;;1.30;0.90;;;6.30;92.70;;;;;;5012749;28;20791;-75
2021/01/12 06:06:44;;;;;;;1.57;0.90;;;6.30;92.70;;;;;;5011950;28;20436;-76
2021/01/12 06:09:12;;;;;;;2.37;1.23;;;6.30;92.70;;;;;;5013390;28;20199;-76
2021/01/12 06:11:39;;;;;;;2.03;1.23;;;6.30;92.70;;;;;;5012417;28;20414;-76
2021/01/12 06:14:10;;;;;;;1.40;0.80;;;6.30;92.70;;;;;;4994325;28;20951;-75
2021/01/12 06:16:39;;;;;;;2.53;1.33;;;6.30;92.70;;;;;;5012356;28;20501;-76
2021/01/12 06:19:10;;;;;;;1.40;1.10;;;6.30;92.60;;;;;;4997764;28;20959;-77
2021/01/12 06:21:54;;;;;;;1.37;0.97;;;6.30;92.60;;;;;;5014935;28;20855;-77
2021/01/12 06:24:35;;;;;;;2.67;1.10;;;6.30;92.60;;;;;;5016212;28;20445;-77
2021/01/12 06:27:05;;;;;;;2.10;1.20;;;6.30;92.60;;;;;;5016845;28;20485;-76
2021/01/12 06:29:31;;;;;;;3.80;1.67;;;6.30;92.60;;;;;;4997305;28;20484;-77
2021/01/12 06:31:57;;;;;;;1.53;0.80;;;6.30;92.60;;;;;;5014071;28;21021;-76
2021/01/12 06:34:23;;;;;;;1.60;0.90;;;6.30;92.90;;;;;;5012931;28;20179;-78
2021/01/12 06:36:52;;;;;;;1.50;1.00;;;6.30;92.70;;;;;;5012387;28;20406;-76
2021/01/12 06:39:22;;;;;;;2.80;0.87;;;6.30;92.70;;;;;;5010221;28;21028;-77
2021/01/12 06:41:49;;;;;;;1.17;0.80;;;6.40;92.80;;;;;;5012601;28;20450;-77
2021/01/12 06:44:23;;;;;;;1.80;0.90;;;6.30;92.80;;;;;;5015701;28;20563;-78
2021/01/12 06:46:52;;;;;;;1.10;0.73;;;6.30;92.70;;;;;;5018154;28;20504;-78
2021/01/12 06:49:27;;;;;;;1.23;0.90;;;6.40;92.70;;;;;;5016526;28;20436;-78
2021/01/12 06:52:01;;;;;;;1.33;0.87;;;6.40;92.80;;;;;;5015091;28;20436;-77
2021/01/12 06:54:34;;;;;;;1.60;0.80;;;6.40;92.70;;;;;;4999042;28;20422;-77
2021/01/12 06:57:05;;;;;;;2.53;1.00;;;6.40;92.70;;;;;;5016941;28;20410;-78
2021/01/12 06:59:41;;;;;;;1.50;0.80;;;6.40;92.80;;;;;;5000365;28;20500;-78
2021/01/12 07:02:08;;;;;;;3.30;1.10;;;6.40;92.80;;;;;;5020203;28;20529;-77
2021/01/12 07:04:34;;;;;;;1.53;0.93;;;6.40;92.80;;;;;;5012528;28;20787;-76
2021/01/12 07:07:01;;;;;;;1.93;1.00;;;6.40;92.80;;;;;;5027609;28;20449;-78
2021/01/12 07:09:27;;;;;;;2.10;1.13;;;6.40;92.90;;;;;;5004770;28;20198;-77
2021/01/12 07:12:12;;;;;;;2.00;1.10;;;6.40;92.90;;;;;;5015501;28;20421;-77
2021/01/12 07:14:45;;;;;;;2.07;1.30;;;6.40;92.90;;;;;;5016833;28;20418;-77
2021/01/12 07:17:11;;;;;;;3.00;1.33;;;6.40;92.90;;;;;;5014805;28;20504;-77
2021/01/12 07:19:37;;;;;;;1.00;0.70;;;6.40;93.00;;;;;;5016886;28;20898;-77
2021/01/12 07:22:09;;;;;;;4.20;0.80;;;6.40;93.10;;;;;;5006412;28;20282;-78
2021/01/12 07:24:41;;;;;;;2.47;1.23;;;6.40;93.20;;;;;;4997835;28;20167;-77
2021/01/12 07:27:13;;;;;;;1.30;0.90;;;6.40;93.30;;;;;;5009953;28;20426;-77
2021/01/12 07:29:52;;;;;;;2.63;1.10;;;6.40;93.30;;;;;;5014935;28;20418;-78
2021/01/12 07:32:28;;;;;;;4.80;1.20;;;6.40;93.40;;;;;;5011622;28;20426;-78
2021/01/12 07:34:55;;;;;;;5.93;1.97;;;6.40;93.50;;;;;;5016106;28;20432;-78
2021/01/12 07:37:30;;;;;;;5.87;1.70;;;6.40;93.50;;;;;;5007971;28;20560;-78
2021/01/12 07:39:56;;;;;;;2.70;1.43;;;6.40;93.50;;;;;;5023046;28;20410;-76
2021/01/12 07:42:23;;;;;;;2.77;1.47;;;6.40;93.50;;;;;;5029595;28;20414;-75
2021/01/12 07:45:02;;;;;;;3.87;1.73;;;6.40;93.50;;;;;;5015354;28;20414;-76
2021/01/12 07:47:28;;;;;;;2.47;1.43;;;6.40;93.50;;;;;;5005748;28;20429;-77
2021/01/12 07:49:55;;;;;;;4.27;1.87;;;6.40;93.50;;;;;;5014652;28;20905;-76
2021/01/12 07:52:22;;;;;;;5.90;2.67;;;6.50;93.60;;;;;;5014591;28;20891;-78
2021/01/12 07:54:49;;;;;;;2.70;1.70;;;6.50;93.60;;;;;;4997042;28;20870;-78
2021/01/12 07:57:16;;;;;;;2.37;1.83;;;6.50;93.60;;;;;;5000073;28;20419;-78
2021/01/12 07:59:47;;;;;;;8.00;2.43;;;6.50;93.50;;;;;;5000849;28;20422;-77
2021/01/12 08:02:14;;;;;;;3.63;1.83;;;6.50;93.50;;;;;;5017927;28;20768;-77
2021/01/12 08:04:40;;;;;;;5.37;2.10;;;6.60;93.60;;;;;;4999855;28;20993;-79
2021/01/12 08:07:24;;;;;;;3.87;1.67;;;6.60;93.50;;;;;;5018164;28;20414;-79
2021/01/12 08:09:55;;;;;;;11.03;1.63;;;6.60;93.90;;;;;;5002332;28;20429;-79
2021/01/12 08:12:25;;;;;;;5.90;1.53;;;6.60;93.40;;;;;;5017841;28;20431;-77
2021/01/12 08:14:55;;;;;;;4.37;1.83;;;6.60;93.30;;;;;;5016573;28;20609;-79
2021/01/12 08:17:29;;;;;;;2.47;1.57;;;6.70;93.40;;;;;;5017589;28;20444;-78
2021/01/12 08:19:55;;;;;;;1.93;1.57;;;6.70;93.30;;;;;;5019727;28;20972;-79
2021/01/12 08:22:22;;;;;;;5.23;1.97;;;6.70;93.30;;;;;;5016168;28;20433;-79
2021/01/12 08:24:48;;;;;;;2.40;1.20;;;6.70;93.30;;;;;;5018256;28;20175;-78
2021/01/12 08:27:21;;;;;;;2.93;1.00;;;6.70;93.30;;;;;;5018631;28;20418;-78
2021/01/12 08:29:47;;;;;;;4.40;1.33;;;6.70;93.30;;;;;;5016737;28;20422;-80
2021/01/12 08:32:40;;;;;;;1.63;1.00;;;6.80;93.30;;;;;;5015267;28;20432;-78
2021/01/12 08:35:16;;;;;;;1.20;0.70;;;6.80;93.20;;;;;;5006748;28;20460;-77
2021/01/12 08:37:43;;;;;;;1.70;1.10;;;6.80;93.20;;;;;;5017785;28;20488;-79
2021/01/12 08:40:15;;;;;;;2.20;1.10;;;6.80;93.20;;;;;;5017315;28;20508;-77
2021/01/12 08:42:41;;;;;;;7.07;1.20;;;6.90;93.30;;;;;;5011830;28;20442;-78
2021/01/12 08:45:15;;;;;;;2.80;1.40;;;6.90;93.30;;;;;;5017836;28;20437;-79
2021/01/12 08:47:43;;;;;;;1.70;1.13;;;6.80;93.60;;;;;;5014101;28;20500;-81
2021/01/12 08:50:09;;;;;;;2.13;1.33;;;6.80;93.30;;;;;;5025873;28;20426;-80
2021/01/12 08:52:43;;;;;;;2.60;1.63;;;6.80;93.40;;;;;;5018046;28;20489;-78
2021/01/12 08:55:20;;;;;;;3.63;1.03;;;6.90;93.50;;;;;;5000167;28;20437;-79
2021/01/12 08:58:09;;;;;;;1.97;1.10;;;6.80;93.50;;;;;;5017091;28;20462;-80
2021/01/12 09:00:40;;;;;;;2.80;1.67;;;6.90;93.70;;;;;;5007165;28;20461;-80
2021/01/12 09:03:07;;;;;;;4.50;1.90;;;6.80;93.70;;;;;;4989405;28;20510;-77
2021/01/12 09:05:38;;;;;;;5.20;1.90;;;6.80;93.70;;;;;;5026594;28;20429;-78
2021/01/12 09:08:07;;;;;;;2.40;1.50;;;6.80;93.80;;;;;;5022587;28;20434;-78
2021/01/12 09:10:34;;;;;;;5.57;1.73;;;6.90;93.80;;;;;;5015645;28;20951;-77
2021/01/12 09:13:00;;;;;;;1.60;1.40;;;6.90;93.90;;;;;;5017836;28;20434;-78
2021/01/12 09:16:02;;;;;;;3.77;1.90;;;6.90;93.90;;;;;;5022391;28;20547;-79
2021/01/12 09:18:29;;;;;;;3.47;2.10;;;6.90;94.00;;;;;;5001936;28;20492;-79
2021/01/12 09:21:06;;;;;;;4.43;1.30;;;7.00;94.00;;;;;;5024628;28;20448;-76
2021/01/12 09:23:37;;;;;;;2.97;1.37;;;7.00;94.00;;;;;;5029950;28;20638;-79
2021/01/12 09:26:07;;;;;;;2.20;1.60;;;7.00;94.00;;;;;;5025100;28;20513;-79
2021/01/12 09:28:36;;;;;;;3.70;1.20;;;7.10;94.10;;;;;;5004878;28;20473;-77
2021/01/12 09:31:25;;;;;;;3.47;1.57;;;7.10;94.10;;;;;;5017080;28;20422;-77
2021/01/12 09:33:58;;;;;;;3.60;2.17;;;7.10;94.10;;;;;;5004962;28;20415;-78
2021/01/12 09:36:32;;;;;;;3.07;2.10;;;7.10;94.10;;;;;;5012426;28;20484;-76
2021/01/12 09:38:57;;;;;;;3.20;1.40;;;7.10;94.10;;;;;;5013827;28;20426;-78
2021/01/12 09:41:26;;;;;;;3.93;2.30;;;7.20;94.10;;;;;;5001702;28;20438;-79
2021/01/12 09:43:52;;;;;;;4.07;1.90;;;7.20;94.10;;;;;;5006385;28;20194;-77
2021/01/12 09:46:19;;;;;;;3.00;2.27;;;7.20;94.10;;;;;;5017105;28;20528;-78
2021/01/12 09:48:45;;;;;;;4.87;2.17;;;7.20;94.10;;;;;;5018018;28;20442;-78
2021/01/12 09:51:14;;;;;;;4.90;2.60;;;7.30;94.30;;;;;;5017397;28;20410;-79
2021/01/12 09:53:47;;;;;;;5.27;2.47;;;7.30;94.30;;;;;;5008592;28;20422;-78
2021/01/12 09:56:20;;;;;;;14.60;5.07;;;7.30;94.30;;;;;;5009059;28;20426;-76
2021/01/12 09:58:50;;;;;;;7.00;4.13;;;7.30;94.30;;;;;;5016313;28;20931;-79
2021/01/12 10:01:23;;;;;;;5.00;3.20;;;7.30;94.30;;;;;;5017778;28;20597;-77
2021/01/12 10:03:49;;;;;;;8.37;3.80;;;7.30;94.30;;;;;;5016293;28;20418;-79
2021/01/12 10:06:34;;;;;;;4.57;2.73;;;7.30;94.40;;;;;;5018015;28;20513;-80
2021/01/12 10:09:13;;;;;;;2.70;2.20;;;7.30;94.50;;;;;;4999000;28;20442;-81
2021/01/12 10:11:39;;;;;;;4.90;2.37;;;7.30;94.50;;;;;;5017031;28;20432;-79
2021/01/12 10:14:07;;;;;;;3.20;2.00;;;7.40;94.60;;;;;;5018595;28;20938;-80
2021/01/12 10:16:33;;;;;;;3.27;1.90;;;7.40;94.70;;;;;;5010092;28;20191;-79
2021/01/12 10:18:58;;;;;;;2.80;2.47;;;7.40;94.70;;;;;;4999511;28;20538;-79
2021/01/12 10:21:24;;;;;;;4.50;2.40;;;7.50;94.90;;;;;;4997392;28;20188;-77
2021/01/12 10:23:50;;;;;;;7.50;2.20;;;7.50;94.80;;;;;;4995908;28;20495;-80
2021/01/12 10:26:17;;;;;;;5.50;2.03;;;7.60;94.80;;;;;;5022503;28;20525;-78
2021/01/12 10:28:47;;;;;;;4.23;2.93;;;7.60;94.80;;;;;;5019543;28;20179;-78
2021/01/12 10:31:14;;;;;;;3.10;1.87;;;7.60;94.80;;;;;;5019510;28;20422;-78
2021/01/12 10:33:43;;;;;;;4.63;2.30;;;7.70;94.80;;;;;;5019041;28;20432;-77
2021/01/12 10:36:12;;;;;;;3.30;2.40;;;7.70;94.80;;;;;;5016290;28;20516;-77
2021/01/12 10:38:38;;;;;;;5.63;2.80;;;7.80;94.90;;;;;;5015952;28;20426;-78
2021/01/12 10:41:04;;;;;;;6.37;2.80;;;7.80;94.80;;;;;;5014934;28;20970;-77
2021/01/12 10:43:29;;;;;;;3.90;1.67;;;7.90;94.80;;;;;;4993129;28;20187;-80
2021/01/12 10:45:58;;;;;;;3.20;2.37;;;7.90;94.80;;;;;;5013248;28;20225;-79
2021/01/12 10:48:35;;;;;;;11.50;5.30;;;8.00;94.70;;;;;;5025324;22;20191;-82
2021/01/12 10:51:04;;;;;;;3.50;2.10;;;8.00;94.40;;;;;;5034432;28;20474;-84
2021/01/12 10:53:31;;;;;;;7.27;3.10;;;7.90;94.10;;;;;;5005625;28;20454;-83
2021/01/12 10:55:57;;;;;;;2.57;2.03;;;7.90;94.10;;;;;;5040157;28;21424;-83
2021/01/12 10:58:26;;;;;;;2.80;2.07;;;7.80;94.10;;;;;;5041662;28;20182;-83
2021/01/12 11:00:53;;;;;;;3.83;2.80;;;7.70;94.00;;;;;;5039610;28;20449;-84
2021/01/12 11:03:19;;;;;;;5.43;2.67;;;7.70;94.10;;;;;;5050898;28;20417;-83
2021/01/12 11:05:46;;;;;;;5.97;2.73;;;7.60;94.10;;;;;;5029425;28;20430;-83
2021/01/12 11:08:12;;;;;;;6.87;3.50;;;7.60;94.20;;;;;;5020455;28;20477;-82
2021/01/12 11:10:37;;;;;;;3.47;2.50;;;7.60;94.10;;;;;;5020465;28;20479;-83
2021/01/12 11:13:04;;;;;;;6.13;3.87;;;7.50;94.10;;;;;;5049276;28;20171;-82
2021/01/12 11:15:30;;;;;;;7.50;4.30;;;7.50;94.20;;;;;;5036712;28;20175;-82
2021/01/12 11:17:56;;;;;;;7.87;5.13;;;7.60;94.30;;;;;;5028937;28;20425;-83
2021/01/12 11:20:22;;;;;;;6.73;3.40;;;7.60;94.30;;;;;;5026818;28;20456;-82
2021/01/12 11:22:48;;;;;;;10.10;4.50;;;7.70;94.20;;;;;;5032410;28;20669;-82
2021/01/12 11:25:14;;;;;;;7.73;3.97;;;7.70;94.10;;;;;;5030854;28;20410;-83
2021/01/12 11:27:40;;;;;;;5.13;3.77;;;7.80;94.20;;;;;;5032799;28;20170;-82
2021/01/12 11:30:08;;;;;;;7.70;4.40;;;7.90;94.10;;;;;;5030561;28;20202;-84
2021/01/12 11:32:35;;;;;;;4.73;3.03;;;8.00;93.90;;;;;;5037435;28;20410;-83
2021/01/12 11:35:01;;;;;;;4.03;3.10;;;8.00;93.50;;;;;;5014501;28;20425;-83
2021/01/12 11:37:29;;;;;;;4.80;3.90;;;8.00;93.50;;;;;;4998724;28;20445;-84
2021/01/12 11:39:56;;;;;;;7.77;3.80;;;7.90;93.20;;;;;;5014150;28;20577;-82
2021/01/12 11:42:21;;;;;;;4.77;4.27;;;7.90;93.20;;;;;;5033733;28;20508;-83
2021/01/12 11:44:48;;;;;;;7.23;4.10;;;7.90;93.20;;;;;;5028293;28;20963;-81
2021/01/12 11:47:14;;;;;;;5.23;3.77;;;7.80;93.10;;;;;;5031094;28;20183;-83
2021/01/12 11:49:40;;;;;;;7.37;5.10;;;7.80;93.20;;;;;;5027472;28;20467;-81
2021/01/12 11:52:07;;;;;;;8.97;5.60;;;7.80;93.20;;;;;;5022556;28;20524;-83
2021/01/12 11:54:33;;;;;;;2.80;2.37;;;7.80;93.30;;;;;;5033498;28;20159;-82
2021/01/12 11:56:59;;;;;;;2.60;1.70;;;7.70;93.20;;;;;;5032539;28;20418;-85
2021/01/12 11:59:30;;;;;;;4.17;2.30;;;7.60;92.50;;;;;;5031924;28;20433;-83
2021/01/12 12:01:59;;;;;;;6.30;2.30;;;7.40;92.20;;;;;;5029979;28;20475;-83
2021/01/12 12:04:26;;;;;;;7.03;2.13;;;7.40;92.60;;;;;;4999541;28;20429;-84
2021/01/12 12:07:01;;;;;;;3.27;2.13;;;7.30;92.60;;;;;;5036054;28;20386;-83
2021/01/12 12:09:29;;;;;;;3.90;2.10;;;7.30;92.70;;;;;;5038839;28;20445;-82
2021/01/12 12:11:55;;;;;;;2.97;2.33;;;7.30;92.80;;;;;;5038026;28;20445;-83
2021/01/12 12:14:24;;;;;;;5.27;2.03;;;7.30;92.60;;;;;;5036334;28;20444;-85
2021/01/12 12:16:50;;;;;;;6.40;1.70;;;7.40;92.40;;;;;;5037072;28;20496;-83
2021/01/12 12:19:17;;;;;;;3.00;1.60;;;7.40;92.10;;;;;;5028156;28;20440;-84
2021/01/12 12:21:54;;;;;;;6.80;3.27;;;7.40;91.80;;;;;;5039340;28;20477;-83
2021/01/12 12:24:22;;;;;;;3.13;1.67;;;7.30;91.70;;;;;;5027407;28;20486;-80
2021/01/12 12:26:49;;;;;;;3.80;1.60;;;7.30;91.70;;;;;;5022385;28;20448;-82
2021/01/12 12:29:15;;;;;;;11.57;4.60;;;7.30;91.80;;;;;;5042776;28;20761;-83
2021/01/12 12:31:44;;;;;;;1.90;1.13;;;7.30;91.50;;;;;;5035325;28;20434;-82
2021/01/12 12:34:16;;;;;;;2.83;1.07;;;7.30;91.10;;;;;;5038533;28;20533;-87
2021/01/12 12:36:42;;;;;;;2.67;1.40;;;7.30;90.90;;;;;;5025798;28;20406;-85
2021/01/12 12:39:10;;;;;;;1.30;0.90;;;7.30;90.60;;;;;;5012513;28;20936;-84
2021/01/12 12:41:39;;;;;;;2.13;1.30;;;7.30;90.30;;;;;;5001878;28;20461;-84
2021/01/12 12:44:19;;;;;;;1.97;1.50;;;7.30;90.10;;;;;;5034115;28;20446;-88
2021/01/12 12:46:48;;;;;;;1.60;1.00;;;7.30;90.20;;;;;;5033846;28;20480;-84
2021/01/12 12:49:17;;;;;;;1.47;0.97;;;7.20;88.60;;;;;;5022208;28;20539;-83
2021/01/12 12:51:48;;;;;;;1.10;0.80;;;7.10;88.50;;;;;;5013124;28;20445;-82
2021/01/12 12:54:16;;;;;;;2.53;1.10;;;7.10;88.30;;;;;;5009335;28;20463;-85
2021/01/12 12:56:43;;;;;;;3.87;1.47;;;7.10;88.60;;;;;;5040337;28;20465;-83
2021/01/12 12:59:09;;;;;;;1.90;1.40;;;7.00;88.30;;;;;;5026151;28;20410;-86
2021/01/12 13:01:35;;;;;;;3.10;0.97;;;7.00;88.20;;;;;;5018279;28;20512;-85
2021/01/12 13:04:01;;;;;;;2.37;1.10;;;7.00;88.50;;;;;;5022580;28;20418;-85
2021/01/12 13:06:27;;;;;;;1.63;0.80;;;7.10;88.70;;;;;;5003625;28;20472;-82